Time;durP1;ratioP1;P1;durP2;ratioP2;P2;SDS_P1;SDS_P2;PMS_P1;PMS_P2;Temp;Humidity;BMP_temperature;BMP_pressure;BME280_temperature;BME280_humidity;BME280_pressure;Samples;Min_cycle;Max_cycle;Signal;HPM_P1;HPM_P2
2022/11/05 00:10:18;;;;;;;19.25;3.20;;;;;;;;;;6175218;23;20055;-88
2022/11/05 00:18:14;;;;;;;11.93;2.65;;;;;;;;;;6179404;23;20024;-89
2022/11/05 00:20:40;;;;;;;14.55;3.58;;;;;;;;;;6178988;23;20758;-89
2022/11/05 00:25:57;;;;;;;12.90;3.55;;;;;;;;;;6180417;23;20044;-89
2022/11/05 00:28:24;;;;;;;14.73;3.40;;;;;;;;;;6178641;23;20005;-87
2022/11/05 00:30:50;;;;;;;14.27;3.55;;;;;;;;;;6179750;23;20456;-87
2022/11/05 00:33:16;;;;;;;22.23;4.05;;;;;;;;;;6154817;23;20385;-89
2022/11/05 00:35:42;;;;;;;14.77;3.55;;;;;;;;;;6179637;22;20463;-89
2022/11/05 00:38:08;;;;;;;14.82;3.33;;;;;;;;;;6152189;23;20013;-89
2022/11/05 00:40:35;;;;;;;16.75;3.55;;;;;;;;;;6153576;23;20059;-88
2022/11/05 00:45:45;;;;;;;14.90;4.03;;;;;;;;;;6180047;23;20467;-88
2022/11/05 00:50:56;;;;;;;12.45;4.22;;;;;;;;;;6176523;23;20067;-87
2022/11/05 00:53:22;;;;;;;13.48;4.38;;;;;;;;;;6175806;23;20005;-87
2022/11/05 00:55:48;;;;;;;5.07;2.83;;;;;;;;;;6174368;23;20404;-87
2022/11/05 00:58:16;;;;;;;11.82;3.22;;;;;;;;;;6150197;23;20021;-88
2022/11/05 01:00:43;;;;;;;12.23;3.33;;;;;;;;;;6175455;23;20132;-88
2022/11/05 01:03:11;;;;;;;13.50;3.75;;;;;;;;;;6174508;23;20005;-87
2022/11/05 01:05:41;;;;;;;9.95;2.95;;;;;;;;;;6174740;23;20016;-87
2022/11/05 01:08:08;;;;;;;8.45;2.67;;;;;;;;;;6175519;23;20542;-87
2022/11/05 01:10:35;;;;;;;7.68;3.00;;;;;;;;;;6150335;23;20009;-87
2022/11/05 01:13:01;;;;;;;14.30;3.03;;;;;;;;;;6175889;23;20009;-87
2022/11/05 01:15:27;;;;;;;14.98;2.95;;;;;;;;;;6151447;23;20013;-87
2022/11/05 01:17:53;;;;;;;9.07;3.05;;;;;;;;;;6150024;23;20260;-87
2022/11/05 01:20:19;;;;;;;12.98;2.95;;;;;;;;;;6150306;23;20017;-87
2022/11/05 01:22:45;;;;;;;6.60;2.40;;;;;;;;;;6150326;23;20017;-87
2022/11/05 01:25:12;;;;;;;13.93;2.90;;;;;;;;;;6150427;23;20447;-87
2022/11/05 01:27:38;;;;;;;11.85;3.50;;;;;;;;;;6151462;23;20009;-87
2022/11/05 01:30:05;;;;;;;9.13;2.83;;;;;;;;;;6173721;23;20005;-87
2022/11/05 01:32:31;;;;;;;9.48;2.90;;;;;;;;;;6173751;23;20405;-87
2022/11/05 01:34:57;;;;;;;14.43;2.63;;;;;;;;;;6175543;22;20021;-87
2022/11/05 01:37:23;;;;;;;13.13;2.40;;;;;;;;;;6149917;23;20020;-87
2022/11/05 01:39:50;;;;;;;13.40;3.13;;;;;;;;;;6151219;23;20017;-86
2022/11/05 01:42:23;;;;;;;14.95;2.70;;;;;;;;;;6174920;23;20040;-87
2022/11/05 01:45:04;;;;;;;22.20;2.85;;;;;;;;;;6174731;23;20044;-87
2022/11/05 01:47:30;;;;;;;7.40;2.15;;;;;;;;;;6174895;23;20009;-87
2022/11/05 01:49:58;;;;;;;16.95;2.50;;;;;;;;;;6175176;23;20016;-89
2022/11/05 01:52:26;;;;;;;9.25;2.42;;;;;;;;;;6178886;23;19997;-88
2022/11/05 01:54:52;;;;;;;15.95;6.50;;;;;;;;;;6174607;23;20360;-88
2022/11/05 01:57:18;;;;;;;9.32;3.60;;;;;;;;;;6151482;23;20017;-89
2022/11/05 01:59:47;;;;;;;21.17;3.45;;;;;;;;;;6181838;23;20620;-89
2022/11/05 02:02:14;;;;;;;8.80;2.40;;;;;;;;;;6180676;23;20086;-88
2022/11/05 02:04:48;;;;;;;10.55;2.60;;;;;;;;;;6181734;23;20009;-88
2022/11/05 02:07:14;;;;;;;15.60;2.78;;;;;;;;;;6181974;23;20012;-89
2022/11/05 02:10:01;;;;;;;11.57;2.80;;;;;;;;;;6181490;23;20057;-89
2022/11/05 02:12:30;;;;;;;12.48;2.35;;;;;;;;;;6183114;23;20391;-89
2022/11/05 02:14:56;;;;;;;9.82;2.40;;;;;;;;;;6182773;23;20047;-88
2022/11/05 02:17:26;;;;;;;10.60;2.50;;;;;;;;;;6180753;23;20037;-88
2022/11/05 02:20:10;;;;;;;7.50;2.33;;;;;;;;;;6180674;23;20467;-89
2022/11/05 02:22:45;;;;;;;8.48;2.05;;;;;;;;;;6181231;23;20921;-89
2022/11/05 02:25:23;;;;;;;10.20;2.85;;;;;;;;;;6181511;23;20393;-89
2022/11/05 02:27:58;;;;;;;13.82;2.90;;;;;;;;;;6181218;23;20464;-89
2022/11/05 02:30:38;;;;;;;10.27;2.37;;;;;;;;;;6180164;23;20095;-89
2022/11/05 02:33:24;;;;;;;6.72;1.80;;;;;;;;;;6180446;23;20237;-89
2022/11/05 02:36:27;;;;;;;6.30;1.95;;;;;;;;;;6182777;22;20451;-89
2022/11/05 02:38:59;;;;;;;5.28;2.05;;;;;;;;;;6177369;23;20093;-90
2022/11/05 02:41:25;;;;;;;9.75;1.95;;;;;;;;;;6180147;23;20009;-88
2022/11/05 02:43:54;;;;;;;9.50;2.10;;;;;;;;;;6176882;23;20448;-89
2022/11/05 02:46:35;;;;;;;4.55;2.08;;;;;;;;;;6174147;23;20013;-88
2022/11/05 02:49:01;;;;;;;16.00;2.38;;;;;;;;;;6176141;23;20341;-89
2022/11/05 02:51:46;;;;;;;11.27;2.00;;;;;;;;;;6181373;23;20067;-89
2022/11/05 02:54:32;;;;;;;10.90;2.85;;;;;;;;;;6179580;23;20005;-88
2022/11/05 02:56:59;;;;;;;4.68;2.17;;;;;;;;;;6179128;23;20001;-89
2022/11/05 02:59:25;;;;;;;5.70;2.15;;;;;;;;;;6155066;23;20008;-89
2022/11/05 03:01:52;;;;;;;8.52;2.20;;;;;;;;;;6154747;23;20067;-89
2022/11/05 03:04:19;;;;;;;7.35;1.90;;;;;;;;;;6180857;23;20005;-89
2022/11/05 03:06:54;;;;;;;12.27;1.77;;;;;;;;;;6180322;23;20005;-89
2022/11/05 03:09:20;;;;;;;7.72;2.20;;;;;;;;;;6181422;23;20479;-89
2022/11/05 03:11:52;;;;;;;7.70;1.67;;;;;;;;;;6181118;23;20005;-89
2022/11/05 03:14:24;;;;;;;6.18;1.67;;;;;;;;;;6180096;23;20012;-89
2022/11/05 03:17:12;;;;;;;7.22;2.10;;;;;;;;;;6179714;23;20016;-89
2022/11/05 03:19:38;;;;;;;7.72;2.05;;;;;;;;;;6180279;23;20015;-89
2022/11/05 03:22:07;;;;;;;7.03;1.80;;;;;;;;;;6180339;23;20009;-89
2022/11/05 03:24:34;;;;;;;7.55;1.70;;;;;;;;;;6178614;23;20009;-89
2022/11/05 03:27:12;;;;;;;6.78;1.70;;;;;;;;;;6180216;23;20001;-89
2022/11/05 03:29:39;;;;;;;6.28;2.22;;;;;;;;;;6179637;23;20408;-89
2022/11/05 03:32:07;;;;;;;9.60;3.20;;;;;;;;;;6178373;23;20725;-88
2022/11/05 03:34:43;;;;;;;12.32;1.73;;;;;;;;;;6181319;23;20001;-88
2022/11/05 03:37:16;;;;;;;;;;;;;;;;;;6181091;22;20020;-89
2022/11/05 03:39:45;;;;;;;7.70;1.80;;;;;;;;;;6179645;23;19908;-89
2022/11/05 03:42:13;;;;;;;9.20;1.92;;;;;;;;;;6179138;23;20009;-89
2022/11/05 03:44:42;;;;;;;5.38;1.88;;;;;;;;;;6178742;23;20071;-89
2022/11/05 03:47:10;;;;;;;6.63;2.13;;;;;;;;;;6179581;23;20075;-90
2022/11/05 03:49:43;;;;;;;8.15;1.75;;;;;;;;;;6178875;23;20087;-89
2022/11/05 03:52:17;;;;;;;3.63;1.63;;;;;;;;;;6179133;23;20079;-89
2022/11/05 03:54:43;;;;;;;8.00;2.38;;;;;;;;;;6179067;23;20005;-89
2022/11/05 03:57:15;;;;;;;2.15;1.33;;;;;;;;;;6177137;23;20019;-88
2022/11/05 03:59:43;;;;;;;5.57;1.65;;;;;;;;;;6180057;23;20019;-88
2022/11/05 04:02:10;;;;;;;6.35;2.22;;;;;;;;;;6177660;23;20467;-89
2022/11/05 04:04:41;;;;;;;4.32;1.75;;;;;;;;;;6153351;23;20072;-90
2022/11/05 04:15:22;;;;;;;3.80;1.70;;;;;;;;;;6179432;23;20095;-89
2022/11/05 04:17:48;;;;;;;7.45;1.92;;;;;;;;;;6149736;23;20017;-89
2022/11/05 04:25:45;;;;;;;6.63;2.05;;;;;;;;;;6174941;23;20024;-90
2022/11/05 04:28:11;;;;;;;10.60;1.92;;;;;;;;;;6174140;23;20005;-89
2022/11/05 04:30:37;;;;;;;3.88;2.08;;;;;;;;;;6174291;23;20012;-89
2022/11/05 04:33:09;;;;;;;12.32;2.35;;;;;;;;;;6174426;23;20005;-89
2022/11/05 04:35:35;;;;;;;7.05;2.08;;;;;;;;;;6174925;23;20059;-89
2022/11/05 04:38:01;;;;;;;10.75;2.35;;;;;;;;;;6176210;22;20030;-89
2022/11/05 04:40:28;;;;;;;11.05;2.58;;;;;;;;;;6175900;23;20548;-89
2022/11/05 04:42:55;;;;;;;6.85;2.00;;;;;;;;;;6178202;23;20085;-89
2022/11/05 04:45:22;;;;;;;9.20;2.53;;;;;;;;;;6178171;23;20060;-89
2022/11/05 04:47:48;;;;;;;13.77;2.15;;;;;;;;;;6153168;23;20008;-89
2022/11/05 04:50:14;;;;;;;6.53;2.22;;;;;;;;;;6154575;23;20016;-89
2022/11/05 04:52:40;;;;;;;8.15;2.33;;;;;;;;;;6153775;23;20013;-89
2022/11/05 04:55:07;;;;;;;2.95;2.10;;;;;;;;;;6178796;23;20016;-88
2022/11/05 04:57:33;;;;;;;10.77;2.20;;;;;;;;;;6177858;23;20429;-89
2022/11/05 04:59:59;;;;;;;12.35;2.10;;;;;;;;;;6181383;23;20000;-89
2022/11/05 05:02:25;;;;;;;6.25;1.98;;;;;;;;;;6153594;23;20059;-89
2022/11/05 05:04:51;;;;;;;5.25;2.50;;;;;;;;;;6153765;23;20017;-88
2022/11/05 05:07:25;;;;;;;8.55;2.20;;;;;;;;;;6179275;23;20017;-90
2022/11/05 05:09:53;;;;;;;7.03;2.53;;;;;;;;;;6151890;23;20036;-89
2022/11/05 05:12:19;;;;;;;7.85;2.70;;;;;;;;;;6150087;23;20337;-90
2022/11/05 05:14:47;;;;;;;11.77;3.47;;;;;;;;;;6176283;23;20013;-90
2022/11/05 05:17:13;;;;;;;9.48;1.65;;;;;;;;;;6175816;23;20005;-89
2022/11/05 05:22:23;;;;;;;9.43;3.45;;;;;;;;;;6179970;23;20021;-88
2022/11/05 05:27:58;;;;;;;9.45;3.67;;;;;;;;;;6119948;23;20081;-88
2022/11/05 05:30:24;;;;;;;10.20;3.58;;;;;;;;;;6179940;23;20004;-88
2022/11/05 05:32:50;;;;;;;14.70;4.22;;;;;;;;;;6181788;23;20001;-88
2022/11/05 05:35:16;;;;;;;11.70;4.22;;;;;;;;;;6157578;23;20017;-88
2022/11/05 05:37:50;;;;;;;6.53;3.15;;;;;;;;;;6159098;23;20024;-89
2022/11/05 05:40:17;;;;;;;9.45;4.07;;;;;;;;;;6184389;23;20096;-89
2022/11/05 05:42:43;;;;;;;10.00;4.00;;;;;;;;;;6157158;23;20432;-88
2022/11/05 05:45:11;;;;;;;10.02;3.97;;;;;;;;;;6157550;23;20348;-88
2022/11/05 05:47:37;;;;;;;8.80;3.50;;;;;;;;;;6156950;23;20009;-88
2022/11/05 05:50:03;;;;;;;16.30;4.03;;;;;;;;;;6182570;23;20012;-88
2022/11/05 05:52:29;;;;;;;14.25;4.50;;;;;;;;;;6181406;23;20009;-88
2022/11/05 05:54:55;;;;;;;14.00;3.95;;;;;;;;;;6181652;23;20012;-89
2022/11/05 05:57:21;;;;;;;12.60;4.25;;;;;;;;;;6156995;23;20067;-90
2022/11/05 05:59:47;;;;;;;11.93;3.85;;;;;;;;;;6158735;23;20852;-91
2022/11/05 06:02:14;;;;;;;9.90;3.60;;;;;;;;;;6158285;23;20024;-90
2022/11/05 06:04:40;;;;;;;19.85;4.63;;;;;;;;;;6157019;23;20471;-90
2022/11/05 06:07:07;;;;;;;19.45;4.63;;;;;;;;;;6157665;23;20005;-90
2022/11/05 06:09:33;;;;;;;13.65;4.80;;;;;;;;;;6182528;23;20051;-90
2022/11/05 06:11:59;;;;;;;15.95;4.65;;;;;;;;;;6181649;23;20032;-89
2022/11/05 06:14:26;;;;;;;9.02;4.35;;;;;;;;;;6157296;23;20396;-89
2022/11/05 06:16:52;;;;;;;7.47;4.50;;;;;;;;;;6157304;23;20017;-89
2022/11/05 06:19:18;;;;;;;12.38;4.60;;;;;;;;;;6183526;23;20009;-88
2022/11/05 06:21:44;;;;;;;8.90;4.00;;;;;;;;;;6182150;23;20050;-88
2022/11/05 06:24:10;;;;;;;9.27;4.10;;;;;;;;;;6181878;23;20016;-88
2022/11/05 06:26:41;;;;;;;13.68;4.72;;;;;;;;;;6155219;23;20523;-88
2022/11/05 06:29:08;;;;;;;13.82;4.20;;;;;;;;;;6177281;23;20017;-88
2022/11/05 06:31:34;;;;;;;9.57;4.20;;;;;;;;;;6177290;23;20009;-87
2022/11/05 06:34:00;;;;;;;9.55;3.80;;;;;;;;;;6176676;23;20013;-88
2022/11/05 06:36:33;;;;;;;10.15;4.63;;;;;;;;;;6157868;22;20514;-87
2022/11/05 06:39:10;;;;;;;10.73;4.57;;;;;;;;;;6183072;23;20051;-87
2022/11/05 06:41:36;;;;;;;13.90;4.35;;;;;;;;;;6180952;23;20016;-87
2022/11/05 06:44:02;;;;;;;9.10;4.10;;;;;;;;;;6156688;23;20450;-87
2022/11/05 06:46:28;;;;;;;12.68;4.95;;;;;;;;;;6182130;23;20012;-87
2022/11/05 06:48:54;;;;;;;9.63;4.63;;;;;;;;;;6156440;23;20050;-87
2022/11/05 06:51:20;;;;;;;11.77;4.55;;;;;;;;;;6156427;23;20095;-88
2022/11/05 06:53:46;;;;;;;13.27;5.30;;;;;;;;;;6181427;23;20035;-88
2022/11/05 06:56:12;;;;;;;13.80;4.30;;;;;;;;;;6155720;23;20012;-89
2022/11/05 06:58:38;;;;;;;9.07;4.10;;;;;;;;;;6180469;23;20011;-89
2022/11/05 07:01:09;;;;;;;12.75;4.63;;;;;;;;;;6156527;23;20318;-89
2022/11/05 07:03:35;;;;;;;10.48;4.57;;;;;;;;;;6207375;23;20099;-89
2022/11/05 07:06:03;;;;;;;16.63;4.53;;;;;;;;;;6180771;23;20347;-88
2022/11/05 07:08:33;;;;;;;10.98;4.40;;;;;;;;;;6156974;23;20441;-88
2022/11/05 07:11:00;;;;;;;10.82;4.22;;;;;;;;;;6181754;23;20008;-89
2022/11/05 07:13:26;;;;;;;9.77;4.50;;;;;;;;;;6208495;23;20461;-89
2022/11/05 07:15:52;;;;;;;14.23;4.63;;;;;;;;;;6181689;23;20147;-90
2022/11/05 07:18:18;;;;;;;12.70;4.82;;;;;;;;;;6181969;23;20008;-89
2022/11/05 07:20:44;;;;;;;15.32;4.57;;;;;;;;;;6157393;23;20017;-90
2022/11/05 07:23:11;;;;;;;6.05;2.92;;;;;;;;;;6157495;23;20016;-90
2022/11/05 07:25:38;;;;;;;10.35;4.50;;;;;;;;;;6181861;23;20415;-90
2022/11/05 07:28:05;;;;;;;15.65;4.32;;;;;;;;;;6157301;23;20396;-90
2022/11/05 07:30:31;;;;;;;7.70;4.25;;;;;;;;;;6182421;23;20016;-90
2022/11/05 07:32:57;;;;;;;10.27;3.47;;;;;;;;;;6181322;23;20013;-89
2022/11/05 07:35:23;;;;;;;10.13;5.43;;;;;;;;;;6182541;23;20031;-89
2022/11/05 07:37:57;;;;;;;11.65;5.07;;;;;;;;;;6183487;22;20040;-89
2022/11/05 07:40:24;;;;;;;10.13;3.97;;;;;;;;;;6208829;23;20036;-90
2022/11/05 07:42:51;;;;;;;11.57;4.00;;;;;;;;;;6181655;23;20333;-90
2022/11/05 07:45:17;;;;;;;8.00;3.65;;;;;;;;;;6208745;23;20071;-90
2022/11/05 07:47:48;;;;;;;6.38;3.45;;;;;;;;;;6181064;23;20009;-90
2022/11/05 07:50:15;;;;;;;7.47;4.20;;;;;;;;;;6181337;23;20015;-89
2022/11/05 07:52:41;;;;;;;9.63;3.55;;;;;;;;;;6205631;23;20096;-89
2022/11/05 07:55:07;;;;;;;8.82;3.53;;;;;;;;;;6160363;23;20013;-89
2022/11/05 07:57:39;;;;;;;13.68;3.55;;;;;;;;;;6157361;23;20455;-89
2022/11/05 08:00:06;;;;;;;8.07;3.25;;;;;;;;;;6209186;23;20012;-89
2022/11/05 08:02:32;;;;;;;6.35;3.70;;;;;;;;;;6182370;23;20154;-88
2022/11/05 08:05:14;;;;;;;10.38;3.08;;;;;;;;;;6159869;23;20012;-89
2022/11/05 08:07:41;;;;;;;7.93;3.05;;;;;;;;;;6157024;23;20012;-89
2022/11/05 08:10:08;;;;;;;5.72;3.30;;;;;;;;;;6185767;23;20032;-89
2022/11/05 08:12:34;;;;;;;4.85;3.00;;;;;;;;;;6183287;23;20004;-89
2022/11/05 08:15:00;;;;;;;6.70;2.60;;;;;;;;;;6179104;23;20020;-89
2022/11/05 08:17:26;;;;;;;12.07;3.55;;;;;;;;;;6155930;23;20008;-89
2022/11/05 08:19:52;;;;;;;9.25;3.38;;;;;;;;;;6183091;23;20637;-89
2022/11/05 08:22:18;;;;;;;7.55;3.63;;;;;;;;;;6180316;23;20012;-89
2022/11/05 08:24:45;;;;;;;8.48;2.90;;;;;;;;;;6156637;23;20307;-88
2022/11/05 08:27:11;;;;;;;6.00;2.83;;;;;;;;;;6155993;23;20100;-88
2022/11/05 08:29:37;;;;;;;9.90;3.80;;;;;;;;;;6157096;23;20009;-89
2022/11/05 08:32:03;;;;;;;13.45;2.65;;;;;;;;;;6156995;23;20091;-88
2022/11/05 08:34:29;;;;;;;8.23;3.28;;;;;;;;;;6157452;23;20340;-89
2022/11/05 08:36:55;;;;;;;6.45;2.85;;;;;;;;;;6181057;23;20433;-89
2022/11/05 08:39:22;;;;;;;6.85;3.50;;;;;;;;;;6152091;23;20032;-89
2022/11/05 08:41:48;;;;;;;6.35;3.03;;;;;;;;;;6151608;23;20017;-90
2022/11/05 08:44:14;;;;;;;9.50;4.15;;;;;;;;;;6151971;23;20745;-89
2022/11/05 08:46:40;;;;;;;3.00;2.15;;;;;;;;;;6177568;23;20495;-89
2022/11/05 08:49:06;;;;;;;4.05;3.00;;;;;;;;;;6176253;23;20009;-89
2022/11/05 08:51:32;;;;;;;7.35;3.22;;;;;;;;;;6176936;23;20054;-89
2022/11/05 08:53:58;;;;;;;7.40;3.15;;;;;;;;;;6175246;23;20115;-89
2022/11/05 08:56:24;;;;;;;8.02;2.72;;;;;;;;;;6151684;23;20433;-89
2022/11/05 08:58:51;;;;;;;6.88;3.60;;;;;;;;;;6151376;23;20337;-89
2022/11/05 09:01:17;;;;;;;5.28;2.33;;;;;;;;;;6150916;23;20005;-89
2022/11/05 09:03:43;;;;;;;6.20;2.70;;;;;;;;;;6150636;23;20676;-90
2022/11/05 09:06:09;;;;;;;8.35;2.50;;;;;;;;;;6175159;23;20437;-89
2022/11/05 09:08:35;;;;;;;9.00;3.90;;;;;;;;;;6176515;23;20008;-89
2022/11/05 09:11:01;;;;;;;4.18;2.25;;;;;;;;;;6150487;23;20483;-89
2022/11/05 09:13:28;;;;;;;7.75;2.67;;;;;;;;;;6176423;23;20447;-89
2022/11/05 09:15:54;;;;;;;11.50;2.95;;;;;;;;;;6177382;23;20333;-89
2022/11/05 09:18:20;;;;;;;7.90;2.47;;;;;;;;;;6177010;23;20027;-89
2022/11/05 09:20:47;;;;;;;6.07;2.55;;;;;;;;;;6178303;23;20005;-88
2022/11/05 09:23:16;;;;;;;9.23;2.70;;;;;;;;;;6179110;23;20385;-89
2022/11/05 09:25:46;;;;;;;3.20;2.22;;;;;;;;;;6177081;23;20088;-87
2022/11/05 09:28:13;;;;;;;11.18;3.50;;;;;;;;;;6153436;23;20005;-87
2022/11/05 09:30:40;;;;;;;6.90;2.83;;;;;;;;;;6178077;23;20009;-87
2022/11/05 09:33:07;;;;;;;5.63;2.53;;;;;;;;;;6177687;23;20460;-87
2022/11/05 09:36:05;;;;;;;7.78;2.97;;;;;;;;;;6176480;23;20417;-88
2022/11/05 09:38:38;;;;;;;7.05;2.22;;;;;;;;;;6179428;22;20048;-88
2022/11/05 09:41:06;;;;;;;3.15;1.92;;;;;;;;;;6181751;23;20453;-89
2022/11/05 09:43:35;;;;;;;13.55;3.20;;;;;;;;;;6179136;23;20137;-89
2022/11/05 09:46:08;;;;;;;3.65;2.28;;;;;;;;;;6177685;23;20012;-89
2022/11/05 09:48:35;;;;;;;4.32;2.17;;;;;;;;;;6176013;23;20009;-90
2022/11/05 09:51:01;;;;;;;4.72;2.58;;;;;;;;;;6179433;23;20187;-90
2022/11/05 09:53:27;;;;;;;5.68;2.17;;;;;;;;;;6179057;23;20033;-89
2022/11/05 09:55:58;;;;;;;9.27;2.10;;;;;;;;;;6177883;23;20005;-89
2022/11/05 09:58:33;;;;;;;6.85;2.05;;;;;;;;;;6178296;23;20011;-89
2022/11/05 10:00:59;;;;;;;5.30;1.92;;;;;;;;;;6179177;23;20772;-89
2022/11/05 10:03:27;;;;;;;6.05;2.20;;;;;;;;;;6151948;23;20155;-89
2022/11/05 10:05:54;;;;;;;7.95;2.70;;;;;;;;;;6178271;23;20072;-89
2022/11/05 10:08:27;;;;;;;7.85;2.92;;;;;;;;;;6178267;23;20009;-89
2022/11/05 10:10:54;;;;;;;8.93;2.65;;;;;;;;;;6178440;23;20332;-89
2022/11/05 10:13:26;;;;;;;4.22;2.83;;;;;;;;;;6178064;23;20448;-90
2022/11/05 10:15:52;;;;;;;2.85;1.88;;;;;;;;;;6178812;23;20009;-89
2022/11/05 10:18:25;;;;;;;3.90;1.85;;;;;;;;;;6179480;23;20035;-89
2022/11/05 10:20:51;;;;;;;5.35;2.53;;;;;;;;;;6180498;23;20013;-89
2022/11/05 10:23:19;;;;;;;7.95;2.65;;;;;;;;;;6155260;23;20017;-89
2022/11/05 10:25:47;;;;;;;5.22;2.05;;;;;;;;;;6179905;23;20005;-90
2022/11/05 10:28:17;;;;;;;5.68;2.15;;;;;;;;;;6178620;23;20452;-90
2022/11/05 10:30:45;;;;;;;7.25;2.97;;;;;;;;;;6179916;23;20123;-90
2022/11/05 10:33:13;;;;;;;6.18;2.35;;;;;;;;;;6179665;23;20035;-90
2022/11/05 10:35:43;;;;;;;5.55;2.00;;;;;;;;;;6179218;23;20064;-90
2022/11/05 10:38:19;;;;;;;8.73;2.83;;;;;;;;;;6187116;22;20114;-88
2022/11/05 10:40:57;;;;;;;7.72;2.38;;;;;;;;;;6180727;22;20453;-89
2022/11/05 10:43:41;;;;;;;5.10;1.85;;;;;;;;;;6179671;23;20009;-89
2022/11/05 10:46:26;;;;;;;6.93;3.40;;;;;;;;;;6181298;23;20036;-89
2022/11/05 10:48:55;;;;;;;3.15;2.30;;;;;;;;;;6179338;23;20005;-90
2022/11/05 10:51:21;;;;;;;6.38;3.00;;;;;;;;;;6179496;23;20389;-89
2022/11/05 10:53:55;;;;;;;3.35;3.00;;;;;;;;;;6179163;23;20013;-89
2022/11/05 10:56:29;;;;;;;7.13;2.08;;;;;;;;;;6181181;23;20009;-89
2022/11/05 10:58:56;;;;;;;7.57;3.42;;;;;;;;;;6176539;23;20406;-89
2022/11/05 11:01:23;;;;;;;3.38;1.65;;;;;;;;;;6173164;23;20582;-90
2022/11/05 11:03:52;;;;;;;5.75;2.70;;;;;;;;;;6152884;23;20012;-89
2022/11/05 11:06:18;;;;;;;5.47;2.08;;;;;;;;;;6175348;23;20811;-89
2022/11/05 11:08:45;;;;;;;8.20;2.70;;;;;;;;;;6169944;23;20112;-90
2022/11/05 11:11:12;;;;;;;7.65;1.83;;;;;;;;;;6176759;23;20001;-90
2022/11/05 11:13:47;;;;;;;5.40;2.45;;;;;;;;;;6172589;23;20012;-90
2022/11/05 11:16:15;;;;;;;7.10;2.13;;;;;;;;;;6173642;23;20380;-89
2022/11/05 11:18:43;;;;;;;3.03;1.70;;;;;;;;;;6173670;23;20084;-89
2022/11/05 11:21:18;;;;;;;6.32;1.77;;;;;;;;;;6172231;23;20672;-90
2022/11/05 11:23:53;;;;;;;8.02;2.55;;;;;;;;;;6171315;23;20008;-89
2022/11/05 11:26:20;;;;;;;4.60;1.88;;;;;;;;;;6178615;23;20005;-89
2022/11/05 11:28:47;;;;;;;6.88;2.40;;;;;;;;;;6171137;23;20005;-89
2022/11/05 11:31:15;;;;;;;5.78;2.45;;;;;;;;;;6176649;23;20024;-89
2022/11/05 11:33:44;;;;;;;4.43;2.50;;;;;;;;;;6177968;23;20452;-89
2022/11/05 11:36:11;;;;;;;6.78;2.45;;;;;;;;;;6178522;23;20450;-90
2022/11/05 11:38:37;;;;;;;5.32;1.83;;;;;;;;;;6151370;23;20035;-90
2022/11/05 11:41:22;;;;;;;6.07;2.10;;;;;;;;;;6173857;22;20079;-89
2022/11/05 11:43:52;;;;;;;3.92;2.45;;;;;;;;;;6175856;23;20052;-89
2022/11/05 11:46:19;;;;;;;9.63;2.08;;;;;;;;;;6177236;23;20008;-90
2022/11/05 11:48:46;;;;;;;4.00;2.08;;;;;;;;;;6175699;23;20004;-90
2022/11/05 11:51:31;;;;;;;5.38;1.58;;;;;;;;;;6178028;23;20020;-89
2022/11/05 11:53:58;;;;;;;4.47;2.05;;;;;;;;;;6170042;23;20801;-89
2022/11/05 11:56:24;;;;;;;3.95;1.83;;;;;;;;;;6170478;23;20013;-89
2022/11/05 11:58:52;;;;;;;4.32;2.20;;;;;;;;;;6169329;23;20005;-90
2022/11/05 12:01:21;;;;;;;5.18;1.30;;;;;;;;;;6178421;23;20507;-90
2022/11/05 12:03:53;;;;;;;7.38;1.60;;;;;;;;;;6178141;23;20005;-89
2022/11/05 12:06:29;;;;;;;4.63;1.88;;;;;;;;;;6176035;23;20538;-90
2022/11/05 12:08:55;;;;;;;7.72;1.63;;;;;;;;;;6173922;23;20015;-89
2022/11/05 12:11:38;;;;;;;4.85;1.42;;;;;;;;;;6176628;23;20001;-90
2022/11/05 12:14:04;;;;;;;18.38;2.00;;;;;;;;;;6172609;23;20515;-90
2022/11/05 12:16:36;;;;;;;4.38;1.52;;;;;;;;;;6178303;23;20417;-90
2022/11/05 12:19:04;;;;;;;6.72;2.22;;;;;;;;;;6176394;23;20012;-92
2022/11/05 12:21:53;;;;;;;6.80;1.45;;;;;;;;;;6177737;23;20009;-90
2022/11/05 12:24:29;;;;;;;5.70;2.22;;;;;;;;;;6177629;23;20013;-90
2022/11/05 12:27:24;;;;;;;10.80;1.73;;;;;;;;;;6175427;23;20009;-90
2022/11/05 12:30:02;;;;;;;6.72;1.50;;;;;;;;;;6097401;23;20347;-90
2022/11/05 12:32:28;;;;;;;3.92;1.10;;;;;;;;;;6177905;23;20009;-90
2022/11/05 12:35:06;;;;;;;4.07;0.95;;;;;;;;;;6178474;23;20012;-90
2022/11/05 12:37:46;;;;;;;6.35;1.50;;;;;;;;;;6177567;23;20051;-90
2022/11/05 12:40:21;;;;;;;3.15;0.98;;;;;;;;;;6188315;23;20027;-91
2022/11/05 12:42:50;;;;;;;6.53;1.10;;;;;;;;;;6209515;23;20001;-90
2022/11/05 12:45:22;;;;;;;2.00;1.05;;;;;;;;;;6183640;23;20059;-90
2022/11/05 12:48:03;;;;;;;4.18;1.00;;;;;;;;;;6182886;23;20084;-90
2022/11/05 12:50:30;;;;;;;1.40;0.90;;;;;;;;;;6183297;23;20697;-94
2022/11/05 12:52:59;;;;;;;6.03;1.15;;;;;;;;;;6182804;23;20633;-90
2022/11/05 12:55:26;;;;;;;2.20;1.65;;;;;;;;;;6183710;23;20014;-89
2022/11/05 12:57:54;;;;;;;3.42;1.10;;;;;;;;;;6181897;23;20012;-89
2022/11/05 13:00:21;;;;;;;7.95;2.53;;;;;;;;;;6182253;23;20019;-90
2022/11/05 13:02:47;;;;;;;0.88;0.60;;;;;;;;;;6182682;23;20345;-90
2022/11/05 13:05:15;;;;;;;1.75;1.17;;;;;;;;;;6183667;23;20000;-91
2022/11/05 13:07:47;;;;;;;2.05;1.02;;;;;;;;;;6183308;23;20083;-91
2022/11/05 13:10:20;;;;;;;7.28;1.52;;;;;;;;;;6184421;23;20005;-91
2022/11/05 13:12:48;;;;;;;4.40;1.50;;;;;;;;;;6183272;23;20051;-91
2022/11/05 13:15:26;;;;;;;5.22;1.33;;;;;;;;;;6209693;23;20516;-90
2022/11/05 13:17:58;;;;;;;4.97;1.00;;;;;;;;;;6183983;23;20008;-89
2022/11/05 13:20:27;;;;;;;3.20;1.00;;;;;;;;;;6209932;23;20810;-90
2022/11/05 13:22:58;;;;;;;1.60;0.80;;;;;;;;;;6183819;23;20036;-90
2022/11/05 13:25:26;;;;;;;5.18;1.00;;;;;;;;;;6182894;23;20013;-90
2022/11/05 13:27:59;;;;;;;5.68;1.20;;;;;;;;;;6183321;23;20325;-90
2022/11/05 13:30:26;;;;;;;1.60;1.10;;;;;;;;;;6182437;23;20028;-90
2022/11/05 13:33:00;;;;;;;5.75;1.42;;;;;;;;;;6183923;23;20004;-89
2022/11/05 13:35:41;;;;;;;8.23;1.40;;;;;;;;;;6182103;23;20009;-90
2022/11/05 13:40:59;;;;;;;4.18;1.30;;;;;;;;;;6205382;22;20035;-90
2022/11/05 13:43:35;;;;;;;5.65;1.60;;;;;;;;;;6205318;23;20016;-90
2022/11/05 13:46:01;;;;;;;;;;;;;;;;;;6179419;23;20005;-90
2022/11/05 13:48:39;;;;;;;4.38;1.25;;;;;;;;;;6178273;23;19904;-90
2022/11/05 13:51:05;;;;;;;2.58;1.52;;;;;;;;;;6179271;23;20035;-89
2022/11/05 13:53:50;;;;;;;6.93;1.50;;;;;;;;;;6207547;23;20008;-90
2022/11/05 13:56:35;;;;;;;3.65;1.27;;;;;;;;;;6207183;23;20016;-90
2022/11/05 13:59:09;;;;;;;4.88;1.50;;;;;;;;;;6181126;23;20012;-90
2022/11/05 14:01:44;;;;;;;7.18;1.55;;;;;;;;;;6181022;23;20479;-90
2022/11/05 14:04:26;;;;;;;6.85;2.17;;;;;;;;;;6179755;23;20009;-90
2022/11/05 14:06:53;;;;;;;7.43;1.98;;;;;;;;;;6207457;23;20001;-90
2022/11/05 14:09:24;;;;;;;6.38;1.98;;;;;;;;;;6206150;23;20008;-90
2022/11/05 14:11:53;;;;;;;4.53;2.17;;;;;;;;;;6182518;23;20008;-90
2022/11/05 14:14:21;;;;;;;7.53;1.92;;;;;;;;;;6179835;23;20404;-90
2022/11/05 14:16:47;;;;;;;12.35;2.45;;;;;;;;;;6180573;23;20088;-90
2022/11/05 14:19:20;;;;;;;7.22;2.50;;;;;;;;;;6178476;23;20009;-90
2022/11/05 14:21:49;;;;;;;3.58;2.05;;;;;;;;;;6179829;23;20008;-90
2022/11/05 14:24:21;;;;;;;12.77;2.80;;;;;;;;;;6207204;23;20012;-90
2022/11/05 14:27:02;;;;;;;9.73;2.70;;;;;;;;;;6207920;23;20009;-90
2022/11/05 14:29:39;;;;;;;11.20;4.00;;;;;;;;;;6181595;23;20009;-90
2022/11/05 14:32:20;;;;;;;8.40;2.83;;;;;;;;;;6179393;23;20032;-90
2022/11/05 14:34:48;;;;;;;9.45;2.55;;;;;;;;;;6181108;23;20392;-90
2022/11/05 14:37:24;;;;;;;10.48;2.65;;;;;;;;;;6179649;23;20040;-88
2022/11/05 14:39:50;;;;;;;5.72;2.58;;;;;;;;;;6180795;22;20009;-90
2022/11/05 14:42:30;;;;;;;4.75;2.78;;;;;;;;;;6151347;23;20104;-90
2022/11/05 14:45:01;;;;;;;8.60;3.13;;;;;;;;;;6175519;23;20385;-89
2022/11/05 14:47:32;;;;;;;7.00;3.13;;;;;;;;;;6175476;23;20434;-90
2022/11/05 14:50:07;;;;;;;15.82;3.35;;;;;;;;;;6177192;23;20451;-90
2022/11/05 14:52:34;;;;;;;11.07;2.97;;;;;;;;;;6174708;23;20009;-90
2022/11/05 14:55:00;;;;;;;6.95;3.03;;;;;;;;;;6176144;23;20009;-90
2022/11/05 14:57:41;;;;;;;9.02;3.78;;;;;;;;;;6174683;23;20348;-90
2022/11/05 15:00:26;;;;;;;9.95;3.63;;;;;;;;;;6176620;23;20005;-90
2022/11/05 15:02:56;;;;;;;4.13;2.72;;;;;;;;;;6173779;23;20012;-90
2022/11/05 15:05:48;;;;;;;6.93;3.17;;;;;;;;;;6175719;23;20097;-90
2022/11/05 15:08:28;;;;;;;10.30;3.22;;;;;;;;;;6178192;23;20338;-90
2022/11/05 15:11:01;;;;;;;9.70;2.97;;;;;;;;;;6175170;23;20015;-90
2022/11/05 15:13:33;;;;;;;7.35;3.17;;;;;;;;;;6176113;23;20005;-89
2022/11/05 15:15:59;;;;;;;5.55;2.72;;;;;;;;;;6176395;23;20010;-89
2022/11/05 15:18:29;;;;;;;13.45;2.78;;;;;;;;;;6149835;23;20013;-89
2022/11/05 15:20:57;;;;;;;5.15;2.20;;;;;;;;;;6175665;23;20008;-89
2022/11/05 15:23:25;;;;;;;14.32;3.22;;;;;;;;;;6174470;23;20047;-89
2022/11/05 15:25:51;;;;;;;6.35;2.92;;;;;;;;;;6176931;23;20072;-89
2022/11/05 15:28:21;;;;;;;9.30;2.50;;;;;;;;;;6174756;23;20374;-89
2022/11/05 15:31:20;;;;;;;8.25;3.40;;;;;;;;;;6174876;23;20008;-89
2022/11/05 15:33:47;;;;;;;9.32;3.13;;;;;;;;;;6173577;23;20015;-89
2022/11/05 15:36:22;;;;;;;21.98;4.07;;;;;;;;;;6175817;23;20346;-89
2022/11/05 15:38:48;;;;;;;4.63;2.58;;;;;;;;;;6176191;23;20472;-89
2022/11/05 15:41:16;;;;;;;9.35;3.53;;;;;;;;;;6174700;22;20092;-88